Terminal Aerodrome Forecast
Issued by NWS Wakefield, VA

Home | Current Version | Previous Version | Text Only | Print | Product List | Glossary On
Versions: 1 2 3 4 5 6 7 8 9 10 11 12 13 14
857
FTUS41 KAKQ 212325
TAFSBY
TAF
KSBY 212325Z 2200/2224 12003KT P6SM SKC
     FM220500 00000KT 4SM BR SKC
     FM220700 00000KT 2SM BR SCT004
      TEMPO 2209/2212 1/2SM FG VV002
     FM221400 VRB03KT P6SM SCT250=

USA.gov is the U.S. government's official web portal to all federal, state and local government web resources and services.